Time;durP1;ratioP1;P1;durP2;ratioP2;P2;SDS_P1;SDS_P2;PMS_P1;PMS_P2;Temp;Humidity;BMP_temperature;BMP_pressure;BME280_temperature;BME280_humidity;BME280_pressure;Samples;Min_cycle;Max_cycle;Signal;HPM_P1;HPM_P2
2023/05/12 00:02:00;;;;;;;4.27;2.50;;;;;;;19.93;54.61;101514.72;5014226;28;20282;-71
2023/05/12 00:04:26;;;;;;;5.60;2.47;;;;;;;19.91;54.82;101516.66;5007653;28;20262;-73
2023/05/12 00:06:51;;;;;;;4.25;2.50;;;;;;;19.92;54.60;101521.00;5016795;28;20637;-73
2023/05/12 00:09:16;;;;;;;4.07;2.20;;;;;;;19.92;54.79;101513.88;5011883;28;20033;-74
2023/05/12 00:11:42;;;;;;;3.72;2.00;;;;;;;19.89;54.75;101518.59;5016059;28;20747;-73
2023/05/12 00:14:07;;;;;;;3.78;2.00;;;;;;;19.91;54.72;101519.31;5018072;28;20057;-73
2023/05/12 00:16:33;;;;;;;4.18;2.33;;;;;;;19.91;54.62;101519.31;5013432;28;20049;-73
2023/05/12 00:18:58;;;;;;;3.73;2.07;;;;;;;19.88;54.82;101517.72;5016981;28;20354;-73
2023/05/12 00:21:23;;;;;;;5.43;2.17;;;;;;;19.91;54.35;101521.94;5015016;28;20267;-73
2023/05/12 00:23:48;;;;;;;3.22;1.98;;;;;;;19.88;54.63;101517.72;5012599;28;20488;-72
2023/05/12 00:26:14;;;;;;;5.27;1.90;;;;;;;19.89;54.50;101516.78;5019180;28;20076;-73
2023/05/12 00:28:39;;;;;;;4.47;2.28;;;;;;;19.86;54.36;101506.44;5010442;28;20332;-72
2023/05/12 00:31:04;;;;;;;4.57;1.90;;;;;;;19.87;54.46;101504.66;5009540;28;20449;-73
2023/05/12 00:33:30;;;;;;;4.38;2.20;;;;;;;19.85;54.37;101503.91;5014917;28;20129;-73
2023/05/12 00:35:55;;;;;;;4.07;1.85;;;;;;;19.88;54.57;101512.44;5006700;28;20050;-74
2023/05/12 00:38:21;;;;;;;3.70;1.80;;;;;;;19.87;54.38;101505.47;5010296;28;20033;-72
2023/05/12 00:40:46;;;;;;;3.90;1.90;;;;;;;19.84;54.47;101496.94;5010769;28;20034;-72
2023/05/12 00:43:11;;;;;;;3.50;1.90;;;;;;;19.85;54.18;101512.69;5011872;28;20038;-72
2023/05/12 00:45:37;;;;;;;4.57;1.98;;;;;;;19.83;54.57;101504.03;5013563;28;20513;-71
2023/05/12 00:48:03;;;;;;;3.53;1.98;;;;;;;19.84;54.30;101503.06;5015715;28;20141;-72
2023/05/12 00:50:29;;;;;;;4.07;2.10;;;;;;;19.82;54.43;101499.72;5017646;28;20022;-72
2023/05/12 00:52:54;;;;;;;4.55;1.92;;;;;;;19.83;54.41;101501.38;5007861;28;20095;-70
2023/05/12 00:55:20;;;;;;;3.35;1.85;;;;;;;19.81;54.47;101502.47;5009897;28;20181;-73
2023/05/12 00:57:45;;;;;;;5.97;2.00;;;;;;;19.83;54.51;101498.72;5016955;28;20560;-71
2023/05/12 01:00:11;;;;;;;4.13;1.98;;;;;;;19.82;54.37;101501.50;5019191;28;20037;-71
2023/05/12 01:02:38;;;;;;;4.07;1.80;;;;;;;19.80;54.35;101496.31;5017854;28;20041;-72
2023/05/12 01:05:04;;;;;;;3.53;1.95;;;;;;;19.81;54.06;101500.66;5008975;28;20177;-73
2023/05/12 01:07:31;;;;;;;3.90;1.95;;;;;;;19.82;54.30;101496.22;5018609;28;20108;-73
2023/05/12 01:09:57;;;;;;;3.47;1.95;;;;;;;19.83;54.33;101495.25;5014054;28;20116;-71
2023/05/12 01:12:24;;;;;;;3.50;1.80;;;;;;;19.79;54.21;101496.44;5017910;28;20770;-71
2023/05/12 01:14:52;;;;;;;3.63;1.70;;;;;;;19.78;54.08;101490.31;5010789;28;20142;-71
2023/05/12 01:17:26;;;;;;;4.57;1.92;;;;;;;19.79;54.22;101489.38;5019846;28;20400;-73
2023/05/12 01:19:55;;;;;;;4.93;1.83;;;;;;;19.80;54.12;101490.22;5015760;28;20037;-73
2023/05/12 01:22:21;;;;;;;4.45;1.98;;;;;;;19.82;54.17;101493.56;5012144;28;20037;-73
2023/05/12 01:24:53;;;;;;;4.30;2.08;;;;;;;19.71;53.90;101478.50;5022918;28;20033;-74
2023/05/12 01:27:20;;;;;;;3.63;1.98;;;;;;;19.81;53.77;101489.25;5011902;28;20040;-73
2023/05/12 01:29:47;;;;;;;3.50;1.70;;;;;;;19.79;53.86;101483.22;5016173;28;20116;-73
2023/05/12 01:32:14;;;;;;;3.35;1.73;;;;;;;19.77;54.22;101479.88;5016087;28;20050;-73
2023/05/12 01:34:41;;;;;;;3.60;1.80;;;;;;;19.78;54.02;101482.41;5013459;28;20021;-73
2023/05/12 01:37:10;;;;;;;3.75;1.88;;;;;;;19.75;54.01;101477.31;5019839;28;20569;-73
2023/05/12 01:39:36;;;;;;;3.03;1.52;;;;;;;19.77;54.11;101482.50;5019167;28;20048;-73
2023/05/12 01:42:02;;;;;;;3.97;1.70;;;;;;;19.78;54.04;101479.75;5022219;28;20077;-73
2023/05/12 01:44:27;;;;;;;3.25;1.60;;;;;;;19.79;54.15;101480.56;5013587;28;20053;-72
2023/05/12 01:46:53;;;;;;;4.25;1.95;;;;;;;19.74;53.93;101476.47;5009533;28;20478;-72
2023/05/12 01:49:18;;;;;;;3.75;1.88;;;;;;;19.77;53.86;101478.06;5008065;28;20030;-73
2023/05/12 01:51:43;;;;;;;5.13;2.10;;;;;;;19.78;54.12;101482.41;5017715;28;20167;-74
2023/05/12 01:54:11;;;;;;;3.97;2.10;;;;;;;19.77;53.73;101478.06;5011948;28;20388;-73
2023/05/12 01:56:36;;;;;;;3.10;1.73;;;;;;;19.77;53.75;101474.56;5009628;28;20496;-74
2023/05/12 01:59:01;;;;;;;3.35;1.80;;;;;;;19.75;53.84;101472.03;5015570;28;20041;-73
2023/05/12 02:01:27;;;;;;;4.72;1.77;;;;;;;19.77;54.01;101471.94;5015261;28;20044;-72
2023/05/12 02:03:56;;;;;;;3.53;1.65;;;;;;;19.72;53.90;101461.69;5010063;28;20061;-72
2023/05/12 02:06:21;;;;;;;3.58;1.83;;;;;;;19.74;53.95;101468.53;5012572;28;20946;-73
2023/05/12 02:08:47;;;;;;;3.15;1.70;;;;;;;19.73;53.72;101471.31;5016200;28;20034;-71
2023/05/12 02:11:12;;;;;;;3.15;1.70;;;;;;;19.75;53.98;101472.03;5016014;28;20036;-73
2023/05/12 02:13:37;;;;;;;3.00;1.65;;;;;;;19.73;53.89;101466.84;5011475;28;20056;-73
2023/05/12 02:16:03;;;;;;;3.47;1.65;;;;;;;19.73;53.61;101469.50;5015984;28;20044;-72
2023/05/12 02:18:28;;;;;;;3.35;1.88;;;;;;;19.72;53.77;101456.38;5011757;28;20042;-74
2023/05/12 02:20:54;;;;;;;3.65;1.58;;;;;;;19.72;53.71;101453.75;5021301;28;20034;-73
2023/05/12 02:23:19;;;;;;;3.03;1.60;;;;;;;19.73;53.83;101453.63;5011016;28;20588;-74
2023/05/12 02:25:45;;;;;;;3.78;1.65;;;;;;;19.73;53.91;101450.16;5022252;28;20037;-72
2023/05/12 02:28:10;;;;;;;3.65;1.85;;;;;;;19.74;53.71;101449.16;5015114;28;20067;-73
2023/05/12 02:30:44;;;;;;;3.25;1.60;;;;;;;19.72;53.71;101459.03;5014790;28;20081;-73
2023/05/12 02:33:10;;;;;;;;;;;;;;;19.76;53.74;101447.28;5017883;28;20056;-73
2023/05/12 02:35:35;;;;;;;3.10;1.50;;;;;;;19.77;53.32;101448.97;5014466;28;19917;-74
2023/05/12 02:38:00;;;;;;;3.15;1.60;;;;;;;19.74;53.55;101446.53;5014309;28;20052;-72
2023/05/12 02:40:26;;;;;;;3.10;1.42;;;;;;;19.73;53.60;101445.69;5012531;28;20025;-75
2023/05/12 02:42:51;;;;;;;3.33;1.70;;;;;;;19.70;53.59;101443.28;5017269;28;20132;-72
2023/05/12 02:45:16;;;;;;;3.38;1.63;;;;;;;19.72;53.51;101443.16;5017731;28;20409;-71
2023/05/12 02:47:42;;;;;;;3.95;1.70;;;;;;;19.70;53.58;101440.63;5014834;28;20049;-71
2023/05/12 02:50:08;;;;;;;2.92;1.33;;;;;;;19.70;53.67;101437.16;5009333;28;20041;-73
2023/05/12 02:52:33;;;;;;;2.72;1.50;;;;;;;19.69;53.74;101438.97;5010556;28;21297;-71
2023/05/12 02:54:59;;;;;;;2.67;1.30;;;;;;;19.70;53.74;101437.16;5020861;28;20168;-73
2023/05/12 02:57:26;;;;;;;2.95;1.58;;;;;;;19.68;53.61;101432.00;5011393;28;20433;-71
2023/05/12 02:59:51;;;;;;;3.25;1.73;;;;;;;19.69;53.69;101433.69;5016765;28;20144;-72
2023/05/12 03:02:16;;;;;;;2.92;1.30;;;;;;;19.69;53.57;101432.81;5016850;28;20034;-72
2023/05/12 03:04:42;;;;;;;2.40;1.30;;;;;;;19.67;53.48;101424.19;5014062;28;20037;-73
2023/05/12 03:07:08;;;;;;;3.80;1.50;;;;;;;19.65;53.61;101421.66;5004454;28;20165;-72
2023/05/12 03:09:33;;;;;;;3.30;1.40;;;;;;;19.68;53.65;101423.22;5011309;28;20034;-73
2023/05/12 03:11:58;;;;;;;2.90;1.30;;;;;;;19.66;53.34;101414.56;5004477;28;20030;-73
2023/05/12 03:14:25;;;;;;;2.73;1.13;;;;;;;19.64;53.53;101422.63;5008017;28;20195;-73
2023/05/12 03:16:50;;;;;;;2.20;1.20;;;;;;;19.65;53.53;101415.53;5013506;28;20274;-73
2023/05/12 03:19:16;;;;;;;2.63;1.30;;;;;;;19.64;53.67;101408.56;5008773;28;20029;-72
2023/05/12 03:21:41;;;;;;;2.45;1.20;;;;;;;19.68;53.43;101415.31;5013460;28;20041;-73
2023/05/12 03:24:07;;;;;;;2.63;1.25;;;;;;;19.64;53.13;101400.63;5016738;28;20040;-72
2023/05/12 03:26:32;;;;;;;2.05;0.95;;;;;;;19.67;53.05;101406.50;5012955;28;20041;-72
2023/05/12 03:28:57;;;;;;;2.30;1.30;;;;;;;19.65;53.48;101397.03;5017969;28;20529;-72
2023/05/12 03:31:22;;;;;;;2.03;1.10;;;;;;;19.64;53.39;101396.16;5016152;28;20353;-71
2023/05/12 03:33:48;;;;;;;2.25;1.10;;;;;;;19.63;53.51;101386.56;5013142;28;20034;-72
2023/05/12 03:36:13;;;;;;;2.57;1.20;;;;;;;19.63;53.22;101393.66;5015502;28;20037;-72
2023/05/12 03:38:39;;;;;;;2.40;1.20;;;;;;;19.66;53.44;101398.69;5009894;28;20275;-75
2023/05/12 03:41:05;;;;;;;2.25;1.10;;;;;;;19.64;53.45;101396.16;5007236;28;20838;-72
2023/05/12 03:43:31;;;;;;;2.53;1.13;;;;;;;19.63;53.59;101393.66;5008349;28;20117;-72
2023/05/12 03:45:56;;;;;;;1.95;1.00;;;;;;;19.63;53.55;101389.22;5014193;28;20120;-75
2023/05/12 03:48:21;;;;;;;2.08;1.00;;;;;;;19.62;53.42;101389.34;5011911;28;20044;-73
2023/05/12 03:50:47;;;;;;;3.72;1.30;;;;;;;19.65;53.45;101391.75;5009052;28;20041;-72
2023/05/12 03:53:12;;;;;;;4.20;1.20;;;;;;;19.64;53.38;101398.81;5014145;28;20052;-74
2023/05/12 03:55:37;;;;;;;2.42;1.10;;;;;;;19.61;53.22;101388.47;5008672;28;20860;-72
2023/05/12 03:58:03;;;;;;;2.30;1.17;;;;;;;19.61;53.65;101383.19;5015790;28;20033;-72
2023/05/12 04:00:28;;;;;;;2.47;1.23;;;;;;;19.57;53.16;101377.31;5021357;28;20274;-73
2023/05/12 04:02:53;;;;;;;2.38;1.13;;;;;;;19.63;53.36;101391.88;5018535;28;20453;-73
2023/05/12 04:05:18;;;;;;;3.47;1.30;;;;;;;19.61;53.34;101382.34;5016880;28;20034;-72
2023/05/12 04:07:44;;;;;;;2.58;1.13;;;;;;;19.63;53.31;101385.72;5018602;28;20099;-73
2023/05/12 04:10:09;;;;;;;2.45;1.30;;;;;;;19.61;53.35;101377.06;5011121;28;20034;-73
2023/05/12 04:12:34;;;;;;;2.72;1.30;;;;;;;19.62;53.30;101378.75;5004112;28;20049;-73
2023/05/12 04:15:00;;;;;;;2.63;1.25;;;;;;;19.62;53.41;101382.25;5008344;28;20062;-72
2023/05/12 04:17:25;;;;;;;2.90;1.33;;;;;;;19.62;53.37;101386.69;5011108;28;20117;-72
2023/05/12 04:19:51;;;;;;;2.83;1.30;;;;;;;19.61;53.25;101380.53;5006723;28;20747;-73
2023/05/12 04:22:16;;;;;;;3.17;1.40;;;;;;;19.56;52.94;101372.97;5017452;28;20043;-72
2023/05/12 04:24:42;;;;;;;2.42;1.20;;;;;;;19.59;53.49;101374.56;5017558;28;20037;-73
2023/05/12 04:27:07;;;;;;;3.80;1.33;;;;;;;19.59;53.21;101379.84;5018429;28;20087;-73
2023/05/12 04:29:32;;;;;;;2.78;1.48;;;;;;;19.62;53.41;101384.06;5009751;28;20283;-73
2023/05/12 04:31:58;;;;;;;2.50;1.20;;;;;;;19.60;53.39;101380.66;5015328;28;20033;-72
2023/05/12 04:34:24;;;;;;;2.95;1.33;;;;;;;19.60;53.28;101376.25;5011597;28;20037;-73
2023/05/12 04:36:50;;;;;;;2.80;1.48;;;;;;;19.58;53.46;101372.84;5007643;28;20044;-73
2023/05/12 04:39:15;;;;;;;3.00;1.60;;;;;;;19.58;53.39;101372.84;5011548;28;20050;-73
2023/05/12 04:41:40;;;;;;;3.63;1.65;;;;;;;19.58;53.24;101371.06;5013762;28;20541;-72
2023/05/12 04:44:06;;;;;;;3.20;1.60;;;;;;;19.61;53.43;101379.72;5013273;28;20029;-73
2023/05/12 04:46:31;;;;;;;3.15;1.55;;;;;;;19.55;53.56;101367.81;5014102;28;20845;-73
2023/05/12 04:48:56;;;;;;;3.67;1.60;;;;;;;19.60;53.36;101380.66;5011013;28;20801;-73
2023/05/12 04:51:22;;;;;;;4.30;1.87;;;;;;;19.58;53.31;101386.94;5012667;28;20101;-73
2023/05/12 04:53:47;;;;;;;4.90;2.05;;;;;;;19.60;53.14;101381.53;5016389;28;20618;-73
2023/05/12 04:56:12;;;;;;;4.53;1.80;;;;;;;19.52;53.30;101376.00;5007791;28;20041;-72
2023/05/12 04:58:37;;;;;;;4.37;2.03;;;;;;;19.53;53.53;101370.56;5014797;28;20033;-71
2023/05/12 05:01:03;;;;;;;3.80;1.60;;;;;;;19.57;53.32;101368.56;5018805;28;20267;-72
2023/05/12 05:03:28;;;;;;;4.68;2.30;;;;;;;19.58;53.62;101391.38;5008760;28;20030;-72
2023/05/12 05:05:53;;;;;;;4.28;2.00;;;;;;;19.58;53.37;101399.28;5008371;28;20025;-72
2023/05/12 05:08:19;;;;;;;4.15;1.80;;;;;;;19.58;53.39;101388.72;5006763;28;20033;-70
2023/05/12 05:10:45;;;;;;;3.80;1.70;;;;;;;19.55;53.64;101383.66;5009103;28;20042;-71
2023/05/12 05:13:10;;;;;;;4.35;2.08;;;;;;;19.56;53.73;101391.47;5003955;28;20137;-72
2023/05/12 05:15:36;;;;;;;4.00;2.20;;;;;;;19.57;53.55;101393.19;5016810;28;20037;-72
2023/05/12 05:18:01;;;;;;;5.43;2.20;;;;;;;19.55;53.48;101388.97;5019030;28;20087;-73
2023/05/12 05:20:27;;;;;;;4.95;2.00;;;;;;;19.56;53.40;101393.28;5007896;28;20038;-72
2023/05/12 05:22:52;;;;;;;5.45;2.30;;;;;;;19.53;53.41;101393.53;5014051;28;20041;-72
2023/05/12 05:25:18;;;;;;;5.30;2.60;;;;;;;19.53;53.57;101391.72;5013120;28;20033;-73
2023/05/12 05:27:43;;;;;;;4.43;2.45;;;;;;;19.54;53.29;101395.22;5014338;28;20092;-72
2023/05/12 05:30:08;;;;;;;4.78;2.60;;;;;;;19.49;53.38;101392.94;5012246;28;20038;-72
2023/05/12 05:32:39;;;;;;;5.47;2.90;;;;;;;19.53;53.47;101407.59;5006562;28;20034;-73
2023/05/12 05:35:04;;;;;;;6.78;2.45;;;;;;;19.50;53.39;101402.56;5008705;28;20091;-73
2023/05/12 05:37:30;;;;;;;4.55;2.63;;;;;;;19.50;53.43;101407.84;5012449;28;20037;-73
2023/05/12 05:39:55;;;;;;;4.43;2.50;;;;;;;19.50;53.63;101417.56;5015049;28;20053;-72
2023/05/12 05:42:20;;;;;;;4.70;2.58;;;;;;;19.49;53.51;101411.44;5016645;28;20026;-71
2023/05/12 05:44:46;;;;;;;4.32;2.40;;;;;;;19.52;53.70;101428.88;5018978;28;20038;-71
2023/05/12 05:47:11;;;;;;;5.07;2.77;;;;;;;19.50;53.72;101421.06;5024903;28;20039;-74
2023/05/12 05:49:36;;;;;;;5.03;2.65;;;;;;;19.52;53.61;101420.94;5018312;28;20264;-72
2023/05/12 05:52:01;;;;;;;4.40;2.50;;;;;;;19.50;53.73;101425.50;5018572;28;20060;-73
2023/05/12 05:54:27;;;;;;;4.97;2.95;;;;;;;19.49;53.86;101427.31;5015368;28;20287;-73
2023/05/12 05:56:52;;;;;;;5.07;2.92;;;;;;;19.46;53.88;101424.06;5022457;28;20088;-75
2023/05/12 05:59:18;;;;;;;5.28;2.70;;;;;;;19.50;53.72;101428.13;5012996;28;20038;-74
2023/05/12 06:01:44;;;;;;;5.40;3.03;;;;;;;19.50;53.60;101439.56;5023862;28;20457;-71
2023/05/12 06:04:09;;;;;;;4.75;2.85;;;;;;;19.47;53.56;101431.88;5013386;28;20290;-74
2023/05/12 06:06:35;;;;;;;6.75;3.42;;;;;;;19.46;53.76;101432.84;5008878;28;20041;-75
2023/05/12 06:09:00;;;;;;;4.45;2.60;;;;;;;19.45;53.62;101433.78;5015512;28;20037;-74
2023/05/12 06:11:25;;;;;;;5.10;2.47;;;;;;;19.48;53.75;101456.50;5006643;28;20037;-73
2023/05/12 06:13:51;;;;;;;4.60;2.60;;;;;;;19.47;53.73;101442.47;5007466;28;20060;-71
2023/05/12 06:16:16;;;;;;;7.90;2.63;;;;;;;19.53;53.86;101454.34;5015532;28;20061;-69
2023/05/12 06:18:42;;;;;;;6.75;3.20;;;;;;;19.54;53.98;101453.38;5016621;28;20041;-71
2023/05/12 06:21:07;;;;;;;6.15;3.83;;;;;;;19.56;53.80;101462.03;5010574;28;20034;-73
2023/05/12 06:23:33;;;;;;;5.28;2.95;;;;;;;19.56;53.77;101460.22;5008240;28;20112;-74
2023/05/12 06:25:58;;;;;;;5.93;3.13;;;;;;;19.60;53.85;101468.78;5013849;28;20486;-72
2023/05/12 06:28:23;;;;;;;6.55;2.72;;;;;;;19.61;53.87;101469.63;5008178;28;20041;-71
2023/05/12 06:30:49;;;;;;;6.32;3.33;;;;;;;19.60;54.08;101474.06;5013298;28;20483;-71
2023/05/12 06:33:14;;;;;;;6.18;3.10;;;;;;;19.62;54.24;101476.59;5011577;28;20037;-76
2023/05/12 06:35:39;;;;;;;5.43;3.08;;;;;;;19.56;54.41;101469.97;5010780;28;20037;-71
2023/05/12 06:38:05;;;;;;;5.40;3.03;;;;;;;19.57;54.49;101483.06;5011444;28;20033;-71
2023/05/12 06:40:31;;;;;;;5.88;3.60;;;;;;;19.58;54.62;101483.91;5009931;28;20049;-74
2023/05/12 06:42:56;;;;;;;7.10;3.00;;;;;;;19.55;54.73;101477.06;5013260;28;20398;-75
2023/05/12 06:45:22;;;;;;;5.40;3.05;;;;;;;19.58;54.96;101478.59;5013834;28;20041;-72
2023/05/12 06:47:48;;;;;;;5.30;2.97;;;;;;;19.60;54.82;101484.66;5016100;28;20033;-73
2023/05/12 06:50:15;;;;;;;6.65;3.20;;;;;;;19.63;54.94;101486.19;5014403;28;20123;-73
2023/05/12 06:52:41;;;;;;;6.97;3.17;;;;;;;19.56;54.72;101489.31;5009195;28;20033;-72
2023/05/12 06:55:07;;;;;;;8.38;3.40;;;;;;;19.58;55.07;101495.34;5008644;28;20040;-70
2023/05/12 06:57:32;;;;;;;6.03;3.40;;;;;;;19.53;55.17;101491.34;5011286;28;20041;-72
2023/05/12 06:59:57;;;;;;;5.25;2.90;;;;;;;19.46;55.20;101485.69;5008693;28;20805;-72
2023/05/12 07:02:23;;;;;;;6.78;2.80;;;;;;;19.47;55.61;101500.63;5013403;28;20038;-74
2023/05/12 07:04:48;;;;;;;5.32;2.95;;;;;;;19.48;55.48;101498.81;5014445;28;20099;-73
2023/05/12 07:07:13;;;;;;;5.28;3.38;;;;;;;19.52;55.62;101505.56;5015483;28;20046;-73
2023/05/12 07:09:40;;;;;;;4.97;2.85;;;;;;;19.50;55.70;101500.38;5008596;28;20458;-71
2023/05/12 07:12:06;;;;;;;6.65;3.25;;;;;;;19.49;55.86;101506.63;5009497;28;20041;-73
2023/05/12 07:14:31;;;;;;;6.25;3.10;;;;;;;19.48;55.75;101504.09;5011461;28;20042;-70
2023/05/12 07:16:56;;;;;;;4.68;2.78;;;;;;;19.50;56.02;101513.59;5030900;28;20445;-75
2023/05/12 07:19:22;;;;;;;5.80;3.47;;;;;;;19.49;55.81;101509.25;5008024;28;20482;-72
2023/05/12 07:21:47;;;;;;;5.35;3.05;;;;;;;19.51;55.94;101504.69;5016259;28;20262;-71
2023/05/12 07:24:12;;;;;;;5.65;2.78;;;;;;;19.49;56.36;101517.19;5017881;28;20042;-70
2023/05/12 07:26:38;;;;;;;7.38;2.88;;;;;;;19.44;56.71;101511.41;5015887;28;20240;-72
2023/05/12 07:29:04;;;;;;;4.80;2.72;;;;;;;19.47;56.42;101521.75;5011872;28;20045;-71
2023/05/12 07:31:30;;;;;;;6.45;2.80;;;;;;;19.47;56.65;101512.97;5013154;28;20039;-70
2023/05/12 07:33:55;;;;;;;6.40;3.28;;;;;;;19.47;56.93;101518.25;5014648;28;20393;-73
2023/05/12 07:36:20;;;;;;;7.00;3.08;;;;;;;19.56;56.70;101512.25;5003937;28;20042;-79
2023/05/12 07:38:46;;;;;;;6.65;3.45;;;;;;;19.69;56.49;101523.59;5013802;28;20674;-75
2023/05/12 07:41:11;;;;;;;5.53;3.30;;;;;;;19.72;56.50;101515.41;5005771;28;20033;-76
2023/05/12 07:43:36;;;;;;;5.28;3.17;;;;;;;19.78;56.35;101518.59;5015305;28;20090;-73
2023/05/12 07:46:02;;;;;;;10.00;4.30;;;;;;;19.80;57.02;101517.50;5011987;28;20025;-70
2023/05/12 07:48:27;;;;;;;8.82;3.85;;;;;;;19.86;57.41;101524.13;5010593;28;20041;-74
2023/05/12 07:50:53;;;;;;;8.88;4.35;;;;;;;19.85;57.73;101518.00;5004829;28;20037;-70
2023/05/12 07:53:18;;;;;;;16.27;4.70;;;;;;;19.90;57.76;101526.41;5016113;28;20034;-73
2023/05/12 07:55:44;;;;;;;9.85;4.07;;;;;;;19.81;58.65;101531.56;5010785;28;20039;-70
2023/05/12 07:58:10;;;;;;;9.38;3.80;;;;;;;19.81;58.50;101528.94;5011558;28;20111;-70
2023/05/12 08:00:35;;;;;;;11.27;3.72;;;;;;;19.82;58.10;101536.75;5004880;28;20034;-72
2023/05/12 08:03:01;;;;;;;12.38;4.43;;;;;;;19.80;58.33;101536.00;5011487;28;20041;-72
2023/05/12 08:05:26;;;;;;;9.43;3.45;;;;;;;19.82;58.06;101542.03;5011726;28;20033;-71
2023/05/12 08:07:51;;;;;;;8.02;3.83;;;;;;;19.86;57.73;101529.41;5009769;28;20868;-73
2023/05/12 08:10:18;;;;;;;9.02;4.30;;;;;;;19.86;57.63;101540.00;5011665;28;20037;-72
2023/05/12 08:12:43;;;;;;;7.28;3.30;;;;;;;19.87;57.87;101537.22;5009721;28;20048;-71
2023/05/12 08:15:09;;;;;;;6.93;3.47;;;;;;;19.86;57.59;101548.75;5007235;28;20053;-73
2023/05/12 08:17:34;;;;;;;6.43;3.50;;;;;;;19.87;57.70;101545.16;5015107;28;20150;-71
2023/05/12 08:20:03;;;;;;;8.35;3.60;;;;;;;19.88;57.48;101546.81;5005417;28;20037;-72
2023/05/12 08:22:28;;;;;;;8.43;3.67;;;;;;;19.89;57.46;101553.81;5012418;28;20450;-72
2023/05/12 08:24:54;;;;;;;9.75;3.60;;;;;;;19.86;57.64;101545.28;5013047;28;20120;-72
2023/05/12 08:27:19;;;;;;;7.30;3.42;;;;;;;19.88;57.57;101552.13;5012132;28;20087;-70
2023/05/12 08:29:45;;;;;;;11.00;3.17;;;;;;;19.84;57.33;101550.69;5013420;28;20037;-73
2023/05/12 08:32:10;;;;;;;8.38;3.50;;;;;;;19.82;57.13;101546.47;5002012;28;20046;-71
2023/05/12 08:34:36;;;;;;;5.20;3.33;;;;;;;19.84;57.28;101549.84;5014614;28;20073;-71
2023/05/12 08:37:01;;;;;;;7.57;3.85;;;;;;;19.81;57.46;101555.38;5009386;28;20042;-72
2023/05/12 08:39:29;;;;;;;7.03;3.47;;;;;;;19.79;57.59;101552.00;5001457;28;20061;-74
2023/05/12 08:42:13;;;;;;;6.93;3.45;;;;;;;19.83;57.59;101566.66;5001704;28;20072;-70
2023/05/12 08:44:39;;;;;;;8.50;3.40;;;;;;;19.80;57.30;101565.09;5010880;28;20033;-72
2023/05/12 08:47:05;;;;;;;5.82;3.35;;;;;;;19.77;57.43;101565.31;5012890;28;20528;-73
2023/05/12 08:49:34;;;;;;;7.03;3.70;;;;;;;19.75;57.49;101557.47;5013368;28;20033;-71
2023/05/12 08:52:02;;;;;;;8.85;3.20;;;;;;;19.72;57.70;101570.09;5011661;28;20060;-75
2023/05/12 08:54:28;;;;;;;5.60;3.28;;;;;;;19.71;57.65;101565.75;5012719;28;20773;-74
2023/05/12 08:56:55;;;;;;;8.57;3.28;;;;;;;19.73;57.38;101577.91;5032626;28;20029;-74
2023/05/12 08:59:22;;;;;;;5.82;3.28;;;;;;;19.76;57.29;101571.59;5014542;28;20029;-72
2023/05/12 09:01:48;;;;;;;6.65;3.40;;;;;;;19.76;57.77;101574.25;5011783;28;20277;-73
2023/05/12 09:04:14;;;;;;;5.10;2.92;;;;;;;19.72;57.93;101578.03;5019576;28;20025;-74
2023/05/12 09:06:41;;;;;;;6.13;3.17;;;;;;;19.71;57.75;101582.50;5007980;28;20030;-71
2023/05/12 09:09:06;;;;;;;8.70;3.72;;;;;;;19.86;57.34;101577.00;5008137;28;20029;-71
2023/05/12 09:11:32;;;;;;;7.32;2.67;;;;;;;19.93;56.89;101581.72;5006094;28;20045;-70
2023/05/12 09:14:06;;;;;;;6.43;3.95;;;;;;;19.97;56.97;101581.47;5016070;28;20132;-69
2023/05/12 09:16:34;;;;;;;5.53;3.22;;;;;;;19.98;56.91;101575.22;5007919;28;20119;-70
2023/05/12 09:19:00;;;;;;;5.47;2.88;;;;;;;19.98;57.04;101578.72;5004097;28;20064;-72
2023/05/12 09:21:27;;;;;;;5.05;2.95;;;;;;;20.05;56.78;101584.38;5008045;28;20037;-72
2023/05/12 09:23:53;;;;;;;8.50;3.05;;;;;;;20.05;56.71;101584.38;5008143;28;20044;-70
2023/05/12 09:26:18;;;;;;;5.72;2.70;;;;;;;20.09;56.49;101589.31;5015694;28;20390;-74
2023/05/12 09:28:44;;;;;;;7.53;2.67;;;;;;;20.10;56.63;101593.63;5023378;28;20056;-72
2023/05/12 09:31:23;;;;;;;5.20;2.63;;;;;;;20.06;56.97;101588.69;5016007;28;20037;-73
2023/05/12 09:33:50;;;;;;;5.60;2.47;;;;;;;20.06;56.63;101584.25;5013713;28;20095;-72
2023/05/12 09:36:17;;;;;;;4.70;2.45;;;;;;;20.06;56.79;101580.75;5009657;28;20200;-73
2023/05/12 09:38:42;;;;;;;7.05;2.47;;;;;;;20.08;57.11;101579.66;5007450;28;20120;-73
2023/05/12 09:41:07;;;;;;;5.00;2.60;;;;;;;20.11;56.99;101583.91;5016934;28;20121;-72
2023/05/12 09:43:33;;;;;;;6.97;2.67;;;;;;;20.16;56.66;101594.97;5009390;28;20267;-76
2023/05/12 09:46:04;;;;;;;8.13;3.38;;;;;;;20.16;56.28;101581.72;5032075;28;20048;-78
2023/05/12 09:48:30;;;;;;;6.38;2.58;;;;;;;20.21;56.26;101586.66;5013355;28;20033;-71
2023/05/12 09:50:56;;;;;;;6.30;2.42;;;;;;;20.23;56.49;101595.31;5015398;28;20963;-70
2023/05/12 09:53:21;;;;;;;6.88;2.53;;;;;;;20.19;56.54;101591.25;5014219;28;20034;-75
2023/05/12 09:55:48;;;;;;;5.85;2.72;;;;;;;20.21;56.32;101590.13;5009901;28;20033;-71
2023/05/12 09:58:17;;;;;;;5.90;2.50;;;;;;;20.16;56.74;101602.91;5010457;28;20045;-74
2023/05/12 10:00:43;;;;;;;5.10;2.40;;;;;;;20.17;56.34;101593.13;5017741;28;20046;-73
2023/05/12 10:03:12;;;;;;;5.22;2.70;;;;;;;20.22;56.18;101599.78;5024007;28;20111;-74
2023/05/12 10:05:50;;;;;;;5.95;2.55;;;;;;;20.22;55.97;101601.56;5023891;28;20033;-74
2023/05/12 10:08:23;;;;;;;5.57;2.55;;;;;;;20.20;56.17;101591.13;5023917;28;20064;-75
2023/05/12 10:10:51;;;;;;;5.53;2.17;;;;;;;20.17;56.09;101596.66;5016452;28;20661;-75
2023/05/12 10:13:16;;;;;;;5.70;3.72;;;;;;;20.19;56.25;101610.59;5011144;28;20030;-74
2023/05/12 10:15:42;;;;;;;4.60;2.30;;;;;;;20.18;55.87;101614.19;5014158;28;20444;-75
2023/05/12 10:18:09;;;;;;;5.35;2.40;;;;;;;20.15;56.09;101601.19;5020684;28;20367;-74
2023/05/12 10:20:35;;;;;;;7.70;2.63;;;;;;;20.11;56.12;101603.25;5022432;28;20087;-75
2023/05/12 10:23:01;;;;;;;5.60;2.22;;;;;;;20.08;56.33;101598.19;5004982;28;20033;-74
2023/05/12 10:25:27;;;;;;;4.60;2.40;;;;;;;20.05;56.15;101610.84;5011777;28;20036;-75
2023/05/12 10:27:54;;;;;;;4.20;2.17;;;;;;;20.01;56.34;101606.72;5002415;28;20437;-74
2023/05/12 10:30:21;;;;;;;3.80;2.20;;;;;;;19.99;56.30;101606.84;5022420;28;21185;-75
2023/05/12 10:32:46;;;;;;;6.10;3.05;;;;;;;20.01;56.49;101617.31;5009510;28;20030;-74
2023/05/12 10:35:12;;;;;;;4.15;2.22;;;;;;;19.94;56.26;101601.91;5023236;28;20036;-74
2023/05/12 10:37:38;;;;;;;7.03;2.45;;;;;;;19.94;56.35;101593.97;5025345;28;20194;-74
2023/05/12 10:40:05;;;;;;;4.07;2.13;;;;;;;19.91;56.61;101601.31;5013468;28;20501;-74
2023/05/12 10:42:41;;;;;;;7.47;2.05;;;;;;;19.88;56.91;101602.38;5004693;28;20073;-73
2023/05/12 10:45:17;;;;;;;5.05;2.63;;;;;;;19.86;56.67;101601.66;5013127;28;20044;-74
2023/05/12 10:47:44;;;;;;;4.10;2.30;;;;;;;19.93;56.63;101605.53;5017552;28;20052;-72
2023/05/12 10:50:13;;;;;;;6.43;1.98;;;;;;;19.86;56.79;101604.31;5015554;28;20048;-73
2023/05/12 10:52:59;;;;;;;4.85;2.40;;;;;;;19.90;56.42;101604.91;5012688;28;20041;-75
2023/05/12 10:55:40;;;;;;;5.53;2.10;;;;;;;19.87;56.51;101608.66;5014873;28;20041;-73
2023/05/12 10:58:09;;;;;;;7.00;2.20;;;;;;;19.87;56.71;101610.47;5012000;28;20536;-73
2023/05/12 11:00:48;;;;;;;5.78;2.22;;;;;;;19.85;57.17;101615.00;5018707;28;20037;-73
2023/05/12 11:03:15;;;;;;;9.15;2.50;;;;;;;19.84;56.82;101605.41;5014399;28;20120;-74
2023/05/12 11:05:42;;;;;;;3.95;2.20;;;;;;;19.82;56.83;101610.81;5005208;28;20044;-76
2023/05/12 11:08:07;;;;;;;7.15;2.38;;;;;;;19.80;57.16;101619.81;5003408;28;20038;-75
2023/05/12 11:10:33;;;;;;;5.00;2.40;;;;;;;19.79;57.21;101618.09;5007597;28;20033;-73
2023/05/12 11:12:58;;;;;;;5.68;2.35;;;;;;;19.83;56.72;101615.13;5009519;28;20057;-73
2023/05/12 11:15:24;;;;;;;7.25;2.00;;;;;;;19.88;56.31;101623.53;5003895;28;20049;-74
2023/05/12 11:17:49;;;;;;;7.07;2.60;;;;;;;19.84;56.57;101632.69;5009374;28;20075;-73
2023/05/12 11:20:22;;;;;;;5.30;2.30;;;;;;;19.83;56.32;101638.09;5012000;28;20490;-73